Wetterdaten: Woche 27.08.07 - 02.09.07 (KW35)
Datum Zeit Temperatur Luftfeuchte Luftdruck Niederschlag
27.08.2007 00:00 16,9 C 76 % 0 hPa 0,0 l/m
27.08.2007 01:00 16,1 C 80 % 0 hPa 0,0 l/m
27.08.2007 02:00 15,4 C 82 % 0 hPa 0,0 l/m
27.08.2007 03:00 14,7 C 85 % 0 hPa 0,0 l/m
27.08.2007 04:00 14,1 C 87 % 0 hPa 0,0 l/m
27.08.2007 05:00 13,6 C 89 % 0 hPa 0,0 l/m
27.08.2007 06:00 13,2 C 91 % 0 hPa 0,0 l/m
27.08.2007 07:00 14,0 C 92 % 0 hPa 0,0 l/m
27.08.2007 08:00 15,5 C 91 % 0 hPa 0,0 l/m
27.08.2007 09:00 17,1 C 85 % 0 hPa 0,0 l/m
27.08.2007 10:00 20,1 C 64 % 0 hPa 0,0 l/m
27.08.2007 11:00 21,6 C 57 % 0 hPa 0,0 l/m
27.08.2007 12:00 23,1 C 49 % 0 hPa 0,0 l/m
27.08.2007 13:00 24,6 C 44 % 0 hPa 0,0 l/m
27.08.2007 14:00 25,4 C 42 % 0 hPa 0,0 l/m
27.08.2007 15:00 25,8 C 42 % 0 hPa 0,0 l/m
27.08.2007 16:00 25,9 C 37 % 0 hPa 0,0 l/m
27.08.2007 17:00 25,4 C 38 % 0 hPa 0,0 l/m
27.08.2007 18:00 25,0 C 42 % 0 hPa 0,0 l/m
27.08.2007 19:00 23,3 C 47 % 0 hPa 0,0 l/m
27.08.2007 20:00 21,7 C 52 % 0 hPa 0,0 l/m
27.08.2007 21:00 20,3 C 60 % 0 hPa 0,0 l/m
27.08.2007 22:00 19,2 C 64 % 0 hPa 0,0 l/m
27.08.2007 23:00 17,8 C 69 % 0 hPa 0,0 l/m
28.08.2007 00:00 16,8 C 74 % 0 hPa 0,0 l/m
28.08.2007 01:00 16,4 C 76 % 0 hPa 0,0 l/m
28.08.2007 02:00 15,7 C 79 % 0 hPa 0,0 l/m
28.08.2007 03:00 14,9 C 81 % 0 hPa 0,0 l/m
28.08.2007 04:00 14,5 C 83 % 0 hPa 0,0 l/m
28.08.2007 05:00 14,2 C 85 % 0 hPa 0,0 l/m
28.08.2007 06:00 13,7 C 86 % 0 hPa 0,0 l/m
28.08.2007 07:00 13,6 C 85 % 0 hPa 0,0 l/m
28.08.2007 08:00 14,8 C 77 % 0 hPa 0,0 l/m
28.08.2007 09:00 16,3 C 67 % 0 hPa 0,0 l/m
28.08.2007 10:00 18,5 C 55 % 0 hPa 0,0 l/m
28.08.2007 11:00 19,9 C 49 % 0 hPa 0,0 l/m
28.08.2007 12:00 20,9 C 47 % 0 hPa 0,0 l/m
28.08.2007 13:00 21,6 C 45 % 0 hPa 0,0 l/m
28.08.2007 14:00 22,0 C 44 % 0 hPa 0,0 l/m
28.08.2007 15:00 21,8 C 44 % 0 hPa 0,0 l/m
28.08.2007 16:00 21,6 C 45 % 0 hPa 0,0 l/m
28.08.2007 17:00 21,0 C 47 % 0 hPa 0,0 l/m
28.08.2007 18:00 20,1 C 51 % 0 hPa 0,0 l/m
28.08.2007 19:00 19,2 C 61 % 0 hPa 0,0 l/m
28.08.2007 20:00 17,9 C 71 % 0 hPa 0,0 l/m
28.08.2007 21:00 17,3 C 78 % 0 hPa 1,0 l/m
28.08.2007 22:00 16,6 C 84 % 0 hPa 0,0 l/m
28.08.2007 23:00 16,4 C 87 % 0 hPa 0,0 l/m
29.08.2007 00:00 16,4 C 89 % 0 hPa 0,0 l/m
29.08.2007 01:00 16,1 C 91 % 0 hPa 0,0 l/m
29.08.2007 02:00 15,6 C 91 % 0 hPa 0,0 l/m
29.08.2007 03:00 15,2 C 92 % 0 hPa 0,0 l/m
29.08.2007 04:00 15,1 C 93 % 0 hPa 2,0 l/m
29.08.2007 05:00 14,2 C 94 % 0 hPa 0,0 l/m
29.08.2007 06:00 13,6 C 95 % 0 hPa 3,0 l/m
29.08.2007 07:00 13,1 C 94 % 0 hPa 1,0 l/m
29.08.2007 08:00 13,4 C 96 % 0 hPa 2,0 l/m
29.08.2007 09:00 13,8 C 97 % 0 hPa 0,0 l/m
29.08.2007 10:00 14,2 C 97 % 0 hPa 0,0 l/m
29.08.2007 11:00 14,5 C 98 % 0 hPa 0,0 l/m
29.08.2007 12:00 14,4 C 98 % 0 hPa 0,0 l/m
29.08.2007 13:00 14,9 C 98 % 0 hPa 0,0 l/m
29.08.2007 14:00 15,8 C 98 % 0 hPa 0,0 l/m
29.08.2007 15:00 15,9 C 97 % 0 hPa 0,0 l/m
29.08.2007 16:00 14,5 C 96 % 0 hPa 0,0 l/m
29.08.2007 17:00 13,9 C 95 % 0 hPa 0,0 l/m
29.08.2007 18:00 13,7 C 94 % 0 hPa 1,0 l/m
29.08.2007 19:00 13,4 C 95 % 0 hPa 0,0 l/m
29.08.2007 20:00 13,2 C 95 % 0 hPa 1,0 l/m
29.08.2007 21:00 13,1 C 96 % 0 hPa 1,0 l/m
29.08.2007 22:00 12,9 C 97 % 0 hPa 6,0 l/m
29.08.2007 23:00 12,8 C 98 % 0 hPa 1,0 l/m
30.08.2007 00:00 12,8 C 98 % 0 hPa 0,0 l/m
30.08.2007 01:00 12,8 C 98 % 0 hPa 0,0 l/m
30.08.2007 02:00 12,7 C 98 % 0 hPa 1,0 l/m
30.08.2007 03:00 12,7 C 98 % 0 hPa 0,0 l/m
30.08.2007 04:00 12,6 C 98 % 0 hPa 0,0 l/m
30.08.2007 05:00 12,6 C 98 % 0 hPa 0,0 l/m
30.08.2007 06:00 12,5 C 98 % 0 hPa 1,0 l/m
30.08.2007 07:00 12,5 C 98 % 0 hPa 0,0 l/m
30.08.2007 08:00 12,3 C 98 % 0 hPa 0,0 l/m
30.08.2007 09:00 11,9 C 98 % 0 hPa 0,0 l/m
30.08.2007 10:00 11,9 C 98 % 0 hPa 0,0 l/m
30.08.2007 11:00 12,9 C 98 % 0 hPa 0,0 l/m
30.08.2007 12:00 14,2 C 87 % 0 hPa 0,0 l/m
30.08.2007 13:00 15,7 C 68 % 0 hPa 0,0 l/m
30.08.2007 14:00 16,8 C 59 % 0 hPa 0,0 l/m
30.08.2007 15:00 17,4 C 56 % 0 hPa 0,0 l/m
30.08.2007 16:00 17,7 C 53 % 0 hPa 0,0 l/m
30.08.2007 17:00 17,9 C 49 % 0 hPa 0,0 l/m
30.08.2007 18:00 17,7 C 49 % 0 hPa 0,0 l/m
30.08.2007 19:00 17,3 C 53 % 0 hPa 0,0 l/m
30.08.2007 20:00 14,5 C 68 % 0 hPa 0,0 l/m
30.08.2007 21:00 12,4 C 73 % 0 hPa 0,0 l/m
30.08.2007 22:00 11,2 C 76 % 0 hPa 0,0 l/m
30.08.2007 23:00 9,9 C 80 % 0 hPa 0,0 l/m
31.08.2007 00:00 9,3 C 82 % 0 hPa 0,0 l/m
31.08.2007 01:00 8,7 C 85 % 0 hPa 0,0 l/m
31.08.2007 02:00 7,9 C 87 % 0 hPa 0,0 l/m
31.08.2007 03:00 7,3 C 89 % 0 hPa 0,0 l/m
31.08.2007 04:00 6,8 C 91 % 0 hPa 0,0 l/m
31.08.2007 05:00 6,5 C 92 % 0 hPa 0,0 l/m
31.08.2007 06:00 6,2 C 93 % 0 hPa 0,0 l/m
31.08.2007 07:00 6,4 C 94 % 0 hPa 0,0 l/m
31.08.2007 08:00 8,5 C 94 % 0 hPa 0,0 l/m
31.08.2007 09:00 10,3 C 92 % 0 hPa 0,0 l/m
31.08.2007 10:00 12,3 C 86 % 0 hPa 0,0 l/m
31.08.2007 11:00 14,0 C 75 % 0 hPa 0,0 l/m
31.08.2007 12:00 15,2 C 66 % 0 hPa 0,0 l/m
31.08.2007 13:00 16,9 C 54 % 0 hPa 0,0 l/m
31.08.2007 14:00 18,3 C 48 % 0 hPa 0,0 l/m
31.08.2007 15:00 19,3 C 45 % 0 hPa 0,0 l/m
31.08.2007 16:00 18,4 C 47 % 0 hPa 0,0 l/m
31.08.2007 17:00 17,3 C 52 % 0 hPa 0,0 l/m
31.08.2007 18:00 16,5 C 57 % 0 hPa 0,0 l/m
31.08.2007 19:00 16,0 C 62 % 0 hPa 0,0 l/m
31.08.2007 20:00 15,2 C 68 % 0 hPa 0,0 l/m
31.08.2007 21:00 14,6 C 72 % 0 hPa 0,0 l/m
31.08.2007 22:00 14,5 C 73 % 0 hPa 0,0 l/m
31.08.2007 23:00 14,5 C 70 % 0 hPa 0,0 l/m
01.09.2007 00:00 14,2 C 70 % 0 hPa 0,0 l/m
01.09.2007 01:00 13,9 C 72 % 0 hPa 0,0 l/m
01.09.2007 02:00 13,9 C 73 % 0 hPa 0,0 l/m
01.09.2007 03:00 13,8 C 70 % 0 hPa 0,0 l/m
01.09.2007 04:00 13,5 C 67 % 0 hPa 0,0 l/m
01.09.2007 05:00 13,1 C 67 % 0 hPa 0,0 l/m
01.09.2007 06:00 12,7 C 71 % 0 hPa 0,0 l/m
01.09.2007 07:00 12,5 C 73 % 0 hPa 0,0 l/m
01.09.2007 08:00 12,8 C 74 % 0 hPa 0,0 l/m
01.09.2007 09:00 13,8 C 72 % 0 hPa 0,0 l/m
01.09.2007 10:00 14,6 C 68 % 0 hPa 0,0 l/m
01.09.2007 11:00 15,0 C 64 % 0 hPa 0,0 l/m
01.09.2007 12:00 16,4 C 57 % 0 hPa 0,0 l/m
01.09.2007 13:00 17,3 C 52 % 0 hPa 0,0 l/m
01.09.2007 14:00 17,6 C 50 % 0 hPa 0,0 l/m
01.09.2007 15:00 17,4 C 51 % 0 hPa 0,0 l/m
01.09.2007 16:00 16,8 C 55 % 0 hPa 0,0 l/m
01.09.2007 17:00 17,1 C 58 % 0 hPa 0,0 l/m
01.09.2007 18:00 16,4 C 62 % 0 hPa 0,0 l/m
01.09.2007 19:00 16,1 C 63 % 0 hPa 0,0 l/m
01.09.2007 20:00 14,9 C 66 % 0 hPa 0,0 l/m
01.09.2007 21:00 13,8 C 73 % 0 hPa 0,0 l/m
01.09.2007 22:00 13,5 C 75 % 0 hPa 0,0 l/m
01.09.2007 23:00 13,4 C 76 % 0 hPa 0,0 l/m
02.09.2007 00:00 12,9 C 79 % 0 hPa 0,0 l/m
02.09.2007 01:00 11,9 C 82 % 0 hPa 0,0 l/m
02.09.2007 02:00 11,0 C 85 % 0 hPa 0,0 l/m
02.09.2007 03:00 10,6 C 88 % 0 hPa 0,0 l/m
02.09.2007 04:00 10,1 C 90 % 0 hPa 0,0 l/m
02.09.2007 05:00 9,4 C 91 % 0 hPa 0,0 l/m
02.09.2007 06:00 8,8 C 92 % 0 hPa 0,0 l/m
02.09.2007 07:00 8,7 C 93 % 0 hPa 0,0 l/m
02.09.2007 08:00 10,1 C 95 % 0 hPa 0,0 l/m
02.09.2007 09:00 14,5 C 89 % 0 hPa 0,0 l/m
02.09.2007 10:00 17,6 C 61 % 0 hPa 0,0 l/m
02.09.2007 11:00 18,5 C 50 % 0 hPa 0,0 l/m
02.09.2007 12:00 19,0 C 45 % 0 hPa 0,0 l/m
02.09.2007 13:00 18,8 C 43 % 0 hPa 0,0 l/m
02.09.2007 14:00 20,4 C 38 % 0 hPa 0,0 l/m
02.09.2007 15:00 20,0 C 40 % 0 hPa 0,0 l/m
02.09.2007 16:00 19,9 C 40 % 0 hPa 0,0 l/m
02.09.2007 17:00 19,6 C 43 % 0 hPa 0,0 l/m
02.09.2007 18:00 19,1 C 48 % 0 hPa 0,0 l/m
02.09.2007 19:00 17,9 C 59 % 0 hPa 0,0 l/m
02.09.2007 20:00 16,3 C 65 % 0 hPa 0,0 l/m
02.09.2007 21:00 15,7 C 66 % 0 hPa 0,0 l/m
02.09.2007 22:00 15,6 C 66 % 0 hPa 0,0 l/m
02.09.2007 23:00 15,0 C 70 % 0 hPa 0,0 l/m
Min-Datum _ 31.08.07 27.08.07 27.08.07 -
_ Min-Zeit 06:40 16:05 00:00 -
Minimum _ 6,1 C 35 % 0 hPa -
Max-Datum _ 27.08.07 29.08.07 27.08.07 29.08.07
_ Max-Zeit 15:54 11:00 00:00 22:10
Maximum _ 26,5 C 98 % 0 hPa 6,0 l/m
Durchschnitt _ 15,4 C 74 % 0 hPa #21,0 l/m

Durchschnitt Minimum Temp.15,0 C
Durchschnitt Maximum Temp.15,8 C